sensor_id;sensor_type;location;lat;lon;timestamp;temperature;humidity
21481;DHT22;10902;48.158;8.634;2022-10-22T00:02:11;10.70;99.90
21481;DHT22;10902;48.158;8.634;2022-10-22T00:04:40;10.70;99.90
21481;DHT22;10902;48.158;8.634;2022-10-22T00:07:05;10.70;99.90
21481;DHT22;10902;48.158;8.634;2022-10-22T00:09:31;10.70;99.90
21481;DHT22;10902;48.158;8.634;2022-10-22T00:11:57;10.70;99.90
21481;DHT22;10902;48.158;8.634;2022-10-22T00:14:22;10.80;99.90
21481;DHT22;10902;48.158;8.634;2022-10-22T00:16:48;10.80;99.90
21481;DHT22;10902;48.158;8.634;2022-10-22T00:19:13;10.70;99.90
21481;DHT22;10902;48.158;8.634;2022-10-22T00:21:39;10.70;99.90
21481;DHT22;10902;48.158;8.634;2022-10-22T00:24:05;10.70;99.90
21481;DHT22;10902;48.158;8.634;2022-10-22T00:26:31;10.70;99.90
21481;DHT22;10902;48.158;8.634;2022-10-22T00:28:56;10.70;99.90
21481;DHT22;10902;48.158;8.634;2022-10-22T00:31:23;10.60;99.90
21481;DHT22;10902;48.158;8.634;2022-10-22T00:33:49;10.60;99.90
21481;DHT22;10902;48.158;8.634;2022-10-22T00:36:15;10.60;99.90
21481;DHT22;10902;48.158;8.634;2022-10-22T00:38:41;10.60;99.90
21481;DHT22;10902;48.158;8.634;2022-10-22T00:41:07;10.60;99.90
21481;DHT22;10902;48.158;8.634;2022-10-22T00:43:32;10.60;99.90
21481;DHT22;10902;48.158;8.634;2022-10-22T00:45:58;10.60;99.90
21481;DHT22;10902;48.158;8.634;2022-10-22T00:48:28;10.50;99.90
21481;DHT22;10902;48.158;8.634;2022-10-22T00:51:00;10.60;99.90
21481;DHT22;10902;48.158;8.634;2022-10-22T00:53:31;10.50;99.90
21481;DHT22;10902;48.158;8.634;2022-10-22T00:55:59;10.50;99.90
21481;DHT22;10902;48.158;8.634;2022-10-22T00:58:27;10.50;99.90
21481;DHT22;10902;48.158;8.634;2022-10-22T01:00:54;10.50;99.90
21481;DHT22;10902;48.158;8.634;2022-10-22T01:03:20;10.50;99.90
21481;DHT22;10902;48.158;8.634;2022-10-22T01:05:57;10.50;99.90
21481;DHT22;10902;48.158;8.634;2022-10-22T01:08:42;10.50;99.90
21481;DHT22;10902;48.158;8.634;2022-10-22T01:13:49;10.50;99.90
21481;DHT22;10902;48.158;8.634;2022-10-22T01:22:07;10.40;99.90
21481;DHT22;10902;48.158;8.634;2022-10-22T01:24:39;10.40;99.90
21481;DHT22;10902;48.158;8.634;2022-10-22T01:32:19;10.40;99.90
21481;DHT22;10902;48.158;8.634;2022-10-22T01:34:53;10.40;99.90
21481;DHT22;10902;48.158;8.634;2022-10-22T01:37:23;10.40;99.90
21481;DHT22;10902;48.158;8.634;2022-10-22T01:39:51;10.40;99.90
21481;DHT22;10902;48.158;8.634;2022-10-22T01:42:17;10.40;99.90
21481;DHT22;10902;48.158;8.634;2022-10-22T01:44:43;10.40;99.90
21481;DHT22;10902;48.158;8.634;2022-10-22T01:49:52;10.40;99.90
21481;DHT22;10902;48.158;8.634;2022-10-22T01:55:25;10.40;99.90
21481;DHT22;10902;48.158;8.634;2022-10-22T01:58:18;10.40;99.90
21481;DHT22;10902;48.158;8.634;2022-10-22T02:01:10;10.40;99.90
21481;DHT22;10902;48.158;8.634;2022-10-22T02:03:47;10.40;99.90
21481;DHT22;10902;48.158;8.634;2022-10-22T02:06:18;10.40;99.90
21481;DHT22;10902;48.158;8.634;2022-10-22T02:08:46;10.40;99.90
21481;DHT22;10902;48.158;8.634;2022-10-22T02:11:14;10.40;99.90
21481;DHT22;10902;48.158;8.634;2022-10-22T02:13:43;10.40;99.90
21481;DHT22;10902;48.158;8.634;2022-10-22T02:16:14;10.40;99.90
21481;DHT22;10902;48.158;8.634;2022-10-22T02:18:44;10.40;99.90
21481;DHT22;10902;48.158;8.634;2022-10-22T02:21:10;10.50;99.90
21481;DHT22;10902;48.158;8.634;2022-10-22T02:23:37;10.40;99.90
21481;DHT22;10902;48.158;8.634;2022-10-22T02:26:21;10.40;99.90
21481;DHT22;10902;48.158;8.634;2022-10-22T02:28:57;10.40;99.90
21481;DHT22;10902;48.158;8.634;2022-10-22T02:31:28;10.50;99.90
21481;DHT22;10902;48.158;8.634;2022-10-22T02:33:56;10.50;99.90
21481;DHT22;10902;48.158;8.634;2022-10-22T02:36:23;10.50;99.90
21481;DHT22;10902;48.158;8.634;2022-10-22T02:38:50;10.50;99.90
21481;DHT22;10902;48.158;8.634;2022-10-22T02:41:16;10.50;99.90
21481;DHT22;10902;48.158;8.634;2022-10-22T02:43:53;10.50;99.90
21481;DHT22;10902;48.158;8.634;2022-10-22T02:46:19;10.50;99.90
21481;DHT22;10902;48.158;8.634;2022-10-22T02:48:45;10.50;99.90
21481;DHT22;10902;48.158;8.634;2022-10-22T02:51:11;10.50;99.90
21481;DHT22;10902;48.158;8.634;2022-10-22T02:53:37;10.50;99.90
21481;DHT22;10902;48.158;8.634;2022-10-22T02:56:03;10.40;99.90
21481;DHT22;10902;48.158;8.634;2022-10-22T02:58:29;10.40;99.90
21481;DHT22;10902;48.158;8.634;2022-10-22T03:00:54;10.40;99.90
21481;DHT22;10902;48.158;8.634;2022-10-22T03:03:20;10.40;99.90
21481;DHT22;10902;48.158;8.634;2022-10-22T03:05:45;10.40;99.90
21481;DHT22;10902;48.158;8.634;2022-10-22T03:08:11;10.40;99.90
21481;DHT22;10902;48.158;8.634;2022-10-22T03:10:36;10.40;99.90
21481;DHT22;10902;48.158;8.634;2022-10-22T03:13:02;10.40;99.90
21481;DHT22;10902;48.158;8.634;2022-10-22T03:15:28;10.30;99.90
21481;DHT22;10902;48.158;8.634;2022-10-22T03:17:54;10.40;99.90
21481;DHT22;10902;48.158;8.634;2022-10-22T03:20:19;10.30;99.90
21481;DHT22;10902;48.158;8.634;2022-10-22T03:22:45;10.30;99.90
21481;DHT22;10902;48.158;8.634;2022-10-22T03:25:14;10.30;99.90
21481;DHT22;10902;48.158;8.634;2022-10-22T03:27:41;10.30;99.90
21481;DHT22;10902;48.158;8.634;2022-10-22T03:30:08;10.30;99.90
21481;DHT22;10902;48.158;8.634;2022-10-22T03:32:34;10.30;99.90
21481;DHT22;10902;48.158;8.634;2022-10-22T03:34:59;10.30;99.90
21481;DHT22;10902;48.158;8.634;2022-10-22T03:37:26;10.30;99.90
21481;DHT22;10902;48.158;8.634;2022-10-22T03:39:53;10.30;99.90
21481;DHT22;10902;48.158;8.634;2022-10-22T03:42:20;10.30;99.90
21481;DHT22;10902;48.158;8.634;2022-10-22T03:44:46;10.30;99.90
21481;DHT22;10902;48.158;8.634;2022-10-22T03:47:12;10.30;99.90
21481;DHT22;10902;48.158;8.634;2022-10-22T03:49:37;10.30;99.90
21481;DHT22;10902;48.158;8.634;2022-10-22T03:52:12;10.40;99.90
21481;DHT22;10902;48.158;8.634;2022-10-22T03:54:38;10.30;99.90
21481;DHT22;10902;48.158;8.634;2022-10-22T03:57:05;10.30;99.90
21481;DHT22;10902;48.158;8.634;2022-10-22T03:59:36;10.30;99.90
21481;DHT22;10902;48.158;8.634;2022-10-22T04:02:02;10.30;99.90
21481;DHT22;10902;48.158;8.634;2022-10-22T04:04:28;10.30;99.90
21481;DHT22;10902;48.158;8.634;2022-10-22T04:06:54;10.40;99.90
21481;DHT22;10902;48.158;8.634;2022-10-22T04:09:19;10.40;99.90
21481;DHT22;10902;48.158;8.634;2022-10-22T04:11:45;10.40;99.90
21481;DHT22;10902;48.158;8.634;2022-10-22T04:14:10;10.40;99.90
21481;DHT22;10902;48.158;8.634;2022-10-22T04:16:38;10.30;99.90
21481;DHT22;10902;48.158;8.634;2022-10-22T04:19:04;10.30;99.90
21481;DHT22;10902;48.158;8.634;2022-10-22T04:21:30;10.30;99.90
21481;DHT22;10902;48.158;8.634;2022-10-22T04:23:55;10.30;99.90
21481;DHT22;10902;48.158;8.634;2022-10-22T04:26:21;10.30;99.90
21481;DHT22;10902;48.158;8.634;2022-10-22T04:28:48;10.40;99.90
21481;DHT22;10902;48.158;8.634;2022-10-22T04:31:17;10.30;99.90
21481;DHT22;10902;48.158;8.634;2022-10-22T04:33:43;10.40;99.90
21481;DHT22;10902;48.158;8.634;2022-10-22T04:36:13;10.50;99.90
21481;DHT22;10902;48.158;8.634;2022-10-22T04:38:40;10.50;99.90
21481;DHT22;10902;48.158;8.634;2022-10-22T04:41:10;10.50;99.90
21481;DHT22;10902;48.158;8.634;2022-10-22T04:43:35;10.40;99.90
21481;DHT22;10902;48.158;8.634;2022-10-22T04:46:01;10.40;99.90
21481;DHT22;10902;48.158;8.634;2022-10-22T04:48:27;10.40;99.90
21481;DHT22;10902;48.158;8.634;2022-10-22T04:50:52;10.40;99.90
21481;DHT22;10902;48.158;8.634;2022-10-22T04:53:18;10.50;99.90
21481;DHT22;10902;48.158;8.634;2022-10-22T04:55:43;10.50;99.90
21481;DHT22;10902;48.158;8.634;2022-10-22T04:58:09;10.50;99.90
21481;DHT22;10902;48.158;8.634;2022-10-22T05:00:34;10.40;99.90
21481;DHT22;10902;48.158;8.634;2022-10-22T05:03:00;10.40;99.90
21481;DHT22;10902;48.158;8.634;2022-10-22T05:05:25;10.40;99.90
21481;DHT22;10902;48.158;8.634;2022-10-22T05:07:51;10.50;99.90
21481;DHT22;10902;48.158;8.634;2022-10-22T05:10:16;10.50;99.90
21481;DHT22;10902;48.158;8.634;2022-10-22T05:12:42;10.40;99.90
21481;DHT22;10902;48.158;8.634;2022-10-22T05:15:08;10.50;99.90
21481;DHT22;10902;48.158;8.634;2022-10-22T05:17:36;10.50;99.90
21481;DHT22;10902;48.158;8.634;2022-10-22T05:20:03;10.50;99.90
21481;DHT22;10902;48.158;8.634;2022-10-22T05:22:29;10.60;99.90
21481;DHT22;10902;48.158;8.634;2022-10-22T05:24:54;10.60;99.90
21481;DHT22;10902;48.158;8.634;2022-10-22T05:27:20;10.60;99.90
21481;DHT22;10902;48.158;8.634;2022-10-22T05:29:45;10.60;99.90
21481;DHT22;10902;48.158;8.634;2022-10-22T05:32:11;10.70;99.90
21481;DHT22;10902;48.158;8.634;2022-10-22T05:34:37;10.70;99.90
21481;DHT22;10902;48.158;8.634;2022-10-22T05:37:02;10.70;99.90
21481;DHT22;10902;48.158;8.634;2022-10-22T05:39:28;10.70;99.90
21481;DHT22;10902;48.158;8.634;2022-10-22T05:41:54;10.70;99.90
21481;DHT22;10902;48.158;8.634;2022-10-22T05:44:19;10.70;99.90
21481;DHT22;10902;48.158;8.634;2022-10-22T05:46:45;10.70;99.90
21481;DHT22;10902;48.158;8.634;2022-10-22T05:49:12;10.70;99.90
21481;DHT22;10902;48.158;8.634;2022-10-22T05:51:38;10.80;99.90
21481;DHT22;10902;48.158;8.634;2022-10-22T05:54:06;10.80;99.90
21481;DHT22;10902;48.158;8.634;2022-10-22T05:56:32;10.80;99.90
21481;DHT22;10902;48.158;8.634;2022-10-22T05:58:59;10.80;99.90
21481;DHT22;10902;48.158;8.634;2022-10-22T06:01:30;10.80;99.90
21481;DHT22;10902;48.158;8.634;2022-10-22T06:03:58;10.80;99.90
21481;DHT22;10902;48.158;8.634;2022-10-22T06:06:34;10.90;99.90
21481;DHT22;10902;48.158;8.634;2022-10-22T06:09:05;10.90;99.90
21481;DHT22;10902;48.158;8.634;2022-10-22T06:11:31;10.90;99.90
21481;DHT22;10902;48.158;8.634;2022-10-22T06:13:57;11.00;99.90
21481;DHT22;10902;48.158;8.634;2022-10-22T06:16:23;11.00;99.90
21481;DHT22;10902;48.158;8.634;2022-10-22T06:18:48;11.00;99.90
21481;DHT22;10902;48.158;8.634;2022-10-22T06:21:15;11.00;99.90
21481;DHT22;10902;48.158;8.634;2022-10-22T06:23:41;11.00;99.90
21481;DHT22;10902;48.158;8.634;2022-10-22T06:26:08;11.00;99.90
21481;DHT22;10902;48.158;8.634;2022-10-22T06:28:34;11.00;99.90
21481;DHT22;10902;48.158;8.634;2022-10-22T06:31:01;11.10;99.90
21481;DHT22;10902;48.158;8.634;2022-10-22T06:33:28;11.00;99.90
21481;DHT22;10902;48.158;8.634;2022-10-22T06:36:21;11.10;99.90
21481;DHT22;10902;48.158;8.634;2022-10-22T06:38:50;11.10;99.90
21481;DHT22;10902;48.158;8.634;2022-10-22T06:41:16;11.10;99.90
21481;DHT22;10902;48.158;8.634;2022-10-22T06:43:43;11.20;99.90
21481;DHT22;10902;48.158;8.634;2022-10-22T06:46:16;11.20;99.90
21481;DHT22;10902;48.158;8.634;2022-10-22T06:48:42;11.30;99.90
21481;DHT22;10902;48.158;8.634;2022-10-22T06:51:11;11.20;99.90
21481;DHT22;10902;48.158;8.634;2022-10-22T06:53:37;11.30;99.90
21481;DHT22;10902;48.158;8.634;2022-10-22T06:56:07;11.30;99.90
21481;DHT22;10902;48.158;8.634;2022-10-22T06:58:33;11.40;99.90
21481;DHT22;10902;48.158;8.634;2022-10-22T07:01:03;11.40;99.90
21481;DHT22;10902;48.158;8.634;2022-10-22T07:03:29;11.50;99.90
21481;DHT22;10902;48.158;8.634;2022-10-22T07:05:58;11.50;99.90
21481;DHT22;10902;48.158;8.634;2022-10-22T07:08:23;11.60;99.90
21481;DHT22;10902;48.158;8.634;2022-10-22T07:10:49;11.70;99.90
21481;DHT22;10902;48.158;8.634;2022-10-22T07:13:14;11.80;99.90
21481;DHT22;10902;48.158;8.634;2022-10-22T07:15:40;11.80;99.90
21481;DHT22;10902;48.158;8.634;2022-10-22T07:18:06;11.90;99.90
21481;DHT22;10902;48.158;8.634;2022-10-22T07:20:31;11.90;99.90
21481;DHT22;10902;48.158;8.634;2022-10-22T07:22:57;12.00;99.90
21481;DHT22;10902;48.158;8.634;2022-10-22T07:25:22;12.00;99.90
21481;DHT22;10902;48.158;8.634;2022-10-22T07:27:48;12.10;99.90
21481;DHT22;10902;48.158;8.634;2022-10-22T07:30:13;12.10;99.90
21481;DHT22;10902;48.158;8.634;2022-10-22T07:32:39;12.10;99.90
21481;DHT22;10902;48.158;8.634;2022-10-22T07:35:05;12.10;99.90
21481;DHT22;10902;48.158;8.634;2022-10-22T07:37:30;12.10;99.90
21481;DHT22;10902;48.158;8.634;2022-10-22T07:39:56;12.10;99.90
21481;DHT22;10902;48.158;8.634;2022-10-22T07:42:22;12.10;99.90
21481;DHT22;10902;48.158;8.634;2022-10-22T07:44:47;12.20;99.90
21481;DHT22;10902;48.158;8.634;2022-10-22T07:47:13;12.20;99.90
21481;DHT22;10902;48.158;8.634;2022-10-22T07:49:38;12.30;99.90
21481;DHT22;10902;48.158;8.634;2022-10-22T07:52:05;12.20;99.90
21481;DHT22;10902;48.158;8.634;2022-10-22T07:54:31;12.30;99.90
21481;DHT22;10902;48.158;8.634;2022-10-22T07:56:56;12.40;99.90
21481;DHT22;10902;48.158;8.634;2022-10-22T07:59:22;12.60;99.90
21481;DHT22;10902;48.158;8.634;2022-10-22T08:01:48;12.70;99.90
21481;DHT22;10902;48.158;8.634;2022-10-22T08:04:13;12.90;99.90
21481;DHT22;10902;48.158;8.634;2022-10-22T08:06:39;13.00;99.90
21481;DHT22;10902;48.158;8.634;2022-10-22T08:09:04;13.10;99.90
21481;DHT22;10902;48.158;8.634;2022-10-22T08:11:30;13.00;99.90
21481;DHT22;10902;48.158;8.634;2022-10-22T08:13:58;13.00;99.90
21481;DHT22;10902;48.158;8.634;2022-10-22T08:16:23;13.00;99.90
21481;DHT22;10902;48.158;8.634;2022-10-22T08:18:49;13.20;99.90
21481;DHT22;10902;48.158;8.634;2022-10-22T08:21:15;13.30;99.90
21481;DHT22;10902;48.158;8.634;2022-10-22T08:23:42;13.30;99.90
21481;DHT22;10902;48.158;8.634;2022-10-22T08:26:08;13.60;99.90
21481;DHT22;10902;48.158;8.634;2022-10-22T08:28:34;13.50;99.90
21481;DHT22;10902;48.158;8.634;2022-10-22T08:31:03;13.80;99.90
21481;DHT22;10902;48.158;8.634;2022-10-22T08:33:28;14.10;99.90
21481;DHT22;10902;48.158;8.634;2022-10-22T08:35:54;13.90;99.90
21481;DHT22;10902;48.158;8.634;2022-10-22T08:38:20;13.70;99.90
21481;DHT22;10902;48.158;8.634;2022-10-22T08:40:52;13.70;99.90
21481;DHT22;10902;48.158;8.634;2022-10-22T08:43:45;13.70;99.90
21481;DHT22;10902;48.158;8.634;2022-10-22T08:49:14;13.90;99.90
21481;DHT22;10902;48.158;8.634;2022-10-22T08:51:42;13.90;99.90
21481;DHT22;10902;48.158;8.634;2022-10-22T08:59:42;14.50;99.90
21481;DHT22;10902;48.158;8.634;2022-10-22T09:02:45;14.80;99.90
21481;DHT22;10902;48.158;8.634;2022-10-22T09:05:32;14.70;99.90
21481;DHT22;10902;48.158;8.634;2022-10-22T09:07:59;14.60;99.90
21481;DHT22;10902;48.158;8.634;2022-10-22T09:10:28;14.80;99.90
21481;DHT22;10902;48.158;8.634;2022-10-22T09:12:56;14.80;99.90
21481;DHT22;10902;48.158;8.634;2022-10-22T09:15:21;14.90;99.90
21481;DHT22;10902;48.158;8.634;2022-10-22T09:18:05;15.10;99.90
21481;DHT22;10902;48.158;8.634;2022-10-22T09:20:49;15.40;99.90
21481;DHT22;10902;48.158;8.634;2022-10-22T09:23:26;15.20;99.90
21481;DHT22;10902;48.158;8.634;2022-10-22T09:25:56;15.40;99.90
21481;DHT22;10902;48.158;8.634;2022-10-22T09:28:21;15.80;99.90
21481;DHT22;10902;48.158;8.634;2022-10-22T09:30:47;16.00;99.90
21481;DHT22;10902;48.158;8.634;2022-10-22T09:33:16;16.10;99.90
21481;DHT22;10902;48.158;8.634;2022-10-22T09:38:24;15.70;99.90
21481;DHT22;10902;48.158;8.634;2022-10-22T09:40:54;15.70;99.90
21481;DHT22;10902;48.158;8.634;2022-10-22T09:43:19;15.80;99.90
21481;DHT22;10902;48.158;8.634;2022-10-22T09:45:46;16.00;99.90
21481;DHT22;10902;48.158;8.634;2022-10-22T09:48:27;16.20;99.90
21481;DHT22;10902;48.158;8.634;2022-10-22T09:51:01;16.30;99.90
21481;DHT22;10902;48.158;8.634;2022-10-22T09:53:35;17.20;99.90
21481;DHT22;10902;48.158;8.634;2022-10-22T09:56:16;17.10;99.90
21481;DHT22;10902;48.158;8.634;2022-10-22T09:58:43;17.50;99.90
21481;DHT22;10902;48.158;8.634;2022-10-22T10:01:15;17.30;99.90
21481;DHT22;10902;48.158;8.634;2022-10-22T10:03:42;17.50;99.90
21481;DHT22;10902;48.158;8.634;2022-10-22T10:06:08;17.40;99.90
21481;DHT22;10902;48.158;8.634;2022-10-22T10:08:33;16.90;99.90
21481;DHT22;10902;48.158;8.634;2022-10-22T10:11:04;16.70;99.90
21481;DHT22;10902;48.158;8.634;2022-10-22T10:13:48;17.20;99.90
21481;DHT22;10902;48.158;8.634;2022-10-22T10:22:20;17.90;99.90
21481;DHT22;10902;48.158;8.634;2022-10-22T10:27:37;17.90;99.90
21481;DHT22;10902;48.158;8.634;2022-10-22T10:30:18;18.10;99.90
21481;DHT22;10902;48.158;8.634;2022-10-22T10:35:48;18.90;99.90
21481;DHT22;10902;48.158;8.634;2022-10-22T10:38:41;19.00;99.90
21481;DHT22;10902;48.158;8.634;2022-10-22T10:46:38;20.00;99.90
21481;DHT22;10902;48.158;8.634;2022-10-22T10:49:15;19.80;99.90
21481;DHT22;10902;48.158;8.634;2022-10-22T10:56:55;18.90;99.90
21481;DHT22;10902;48.158;8.634;2022-10-22T10:59:25;17.80;99.90
21481;DHT22;10902;48.158;8.634;2022-10-22T11:02:13;17.00;99.90
21481;DHT22;10902;48.158;8.634;2022-10-22T11:07:24;16.60;99.90
21481;DHT22;10902;48.158;8.634;2022-10-22T11:10:07;16.40;99.90
21481;DHT22;10902;48.158;8.634;2022-10-22T11:12:37;17.10;99.90
21481;DHT22;10902;48.158;8.634;2022-10-22T11:17:47;18.20;99.90
21481;DHT22;10902;48.158;8.634;2022-10-22T11:21:05;19.20;99.90
21481;DHT22;10902;48.158;8.634;2022-10-22T11:23:17;20.20;99.90
21481;DHT22;10902;48.158;8.634;2022-10-22T11:25:48;21.40;99.90
21481;DHT22;10902;48.158;8.634;2022-10-22T11:28:36;20.90;99.90
21481;DHT22;10902;48.158;8.634;2022-10-22T11:31:12;21.80;99.90
21481;DHT22;10902;48.158;8.634;2022-10-22T11:34:00;22.20;99.90
21481;DHT22;10902;48.158;8.634;2022-10-22T11:36:29;22.50;99.90
21481;DHT22;10902;48.158;8.634;2022-10-22T11:38:56;22.20;99.90
21481;DHT22;10902;48.158;8.634;2022-10-22T11:41:28;22.30;99.90
21481;DHT22;10902;48.158;8.634;2022-10-22T11:49:25;20.90;99.90
21481;DHT22;10902;48.158;8.634;2022-10-22T11:52:05;19.70;99.90
21481;DHT22;10902;48.158;8.634;2022-10-22T11:54:45;19.50;99.90
21481;DHT22;10902;48.158;8.634;2022-10-22T12:04:54;20.40;99.90
21481;DHT22;10902;48.158;8.634;2022-10-22T12:10:21;21.50;99.90
21481;DHT22;10902;48.158;8.634;2022-10-22T12:12:56;20.20;99.90
21481;DHT22;10902;48.158;8.634;2022-10-22T12:15:27;19.10;99.90
21481;DHT22;10902;48.158;8.634;2022-10-22T12:17:59;19.70;99.90
21481;DHT22;10902;48.158;8.634;2022-10-22T12:20:26;20.90;99.90
21481;DHT22;10902;48.158;8.634;2022-10-22T12:22:53;21.50;99.90
21481;DHT22;10902;48.158;8.634;2022-10-22T12:25:30;22.80;99.90
21481;DHT22;10902;48.158;8.634;2022-10-22T12:27:57;23.00;99.90
21481;DHT22;10902;48.158;8.634;2022-10-22T12:30:26;22.50;99.90
21481;DHT22;10902;48.158;8.634;2022-10-22T12:32:57;22.90;99.90
21481;DHT22;10902;48.158;8.634;2022-10-22T12:35:27;23.70;99.90
21481;DHT22;10902;48.158;8.634;2022-10-22T12:38:02;24.20;99.90
21481;DHT22;10902;48.158;8.634;2022-10-22T12:40:33;24.30;99.90
21481;DHT22;10902;48.158;8.634;2022-10-22T12:43:14;24.10;99.90
21481;DHT22;10902;48.158;8.634;2022-10-22T12:45:42;23.50;99.90
21481;DHT22;10902;48.158;8.634;2022-10-22T12:48:29;23.80;99.90
21481;DHT22;10902;48.158;8.634;2022-10-22T12:50:59;24.40;99.90
21481;DHT22;10902;48.158;8.634;2022-10-22T12:53:36;23.90;99.90
21481;DHT22;10902;48.158;8.634;2022-10-22T12:56:05;23.60;99.90
21481;DHT22;10902;48.158;8.634;2022-10-22T12:58:37;23.50;99.90
21481;DHT22;10902;48.158;8.634;2022-10-22T13:01:04;22.00;99.90
21481;DHT22;10902;48.158;8.634;2022-10-22T13:03:36;22.80;99.90
21481;DHT22;10902;48.158;8.634;2022-10-22T13:06:32;23.20;99.90
21481;DHT22;10902;48.158;8.634;2022-10-22T13:11:31;23.40;99.90
21481;DHT22;10902;48.158;8.634;2022-10-22T13:14:12;21.80;99.90
21481;DHT22;10902;48.158;8.634;2022-10-22T13:16:39;22.50;99.90
21481;DHT22;10902;48.158;8.634;2022-10-22T13:19:31;22.50;99.90
21481;DHT22;10902;48.158;8.634;2022-10-22T13:21:50;21.80;99.90
21481;DHT22;10902;48.158;8.634;2022-10-22T13:24:21;21.90;99.90
21481;DHT22;10902;48.158;8.634;2022-10-22T13:26:52;23.60;99.90
21481;DHT22;10902;48.158;8.634;2022-10-22T13:29:20;24.10;99.90
21481;DHT22;10902;48.158;8.634;2022-10-22T13:31:48;25.70;99.90
21481;DHT22;10902;48.158;8.634;2022-10-22T13:34:17;26.50;99.90
21481;DHT22;10902;48.158;8.634;2022-10-22T13:36:43;26.50;99.90
21481;DHT22;10902;48.158;8.634;2022-10-22T13:39:21;26.70;99.90
21481;DHT22;10902;48.158;8.634;2022-10-22T13:41:47;26.30;99.90
21481;DHT22;10902;48.158;8.634;2022-10-22T13:44:15;25.70;99.90
21481;DHT22;10902;48.158;8.634;2022-10-22T13:46:41;25.40;99.90
21481;DHT22;10902;48.158;8.634;2022-10-22T13:49:18;24.40;99.90
21481;DHT22;10902;48.158;8.634;2022-10-22T13:51:45;23.70;99.90
21481;DHT22;10902;48.158;8.634;2022-10-22T13:54:22;22.40;99.90
21481;DHT22;10902;48.158;8.634;2022-10-22T13:56:49;21.80;99.90
21481;DHT22;10902;48.158;8.634;2022-10-22T13:59:14;21.50;99.90
21481;DHT22;10902;48.158;8.634;2022-10-22T14:01:40;21.60;99.90
21481;DHT22;10902;48.158;8.634;2022-10-22T14:04:09;22.20;99.90
21481;DHT22;10902;48.158;8.634;2022-10-22T14:06:37;23.60;99.90
21481;DHT22;10902;48.158;8.634;2022-10-22T14:09:05;24.40;99.90
21481;DHT22;10902;48.158;8.634;2022-10-22T14:11:33;25.20;99.90
21481;DHT22;10902;48.158;8.634;2022-10-22T14:14:00;25.10;99.90
21481;DHT22;10902;48.158;8.634;2022-10-22T14:16:28;25.00;99.90
21481;DHT22;10902;48.158;8.634;2022-10-22T14:18:56;25.30;99.90
21481;DHT22;10902;48.158;8.634;2022-10-22T14:21:22;25.50;99.90
21481;DHT22;10902;48.158;8.634;2022-10-22T14:23:48;25.20;99.90
21481;DHT22;10902;48.158;8.634;2022-10-22T14:26:28;25.40;99.90
21481;DHT22;10902;48.158;8.634;2022-10-22T14:28:55;25.50;99.90
21481;DHT22;10902;48.158;8.634;2022-10-22T14:31:21;25.30;99.90
21481;DHT22;10902;48.158;8.634;2022-10-22T14:33:47;25.20;99.90
21481;DHT22;10902;48.158;8.634;2022-10-22T14:36:15;25.70;99.90
21481;DHT22;10902;48.158;8.634;2022-10-22T14:38:42;26.10;99.90
21481;DHT22;10902;48.158;8.634;2022-10-22T14:41:23;26.40;99.90
21481;DHT22;10902;48.158;8.634;2022-10-22T14:43:49;26.50;99.90
21481;DHT22;10902;48.158;8.634;2022-10-22T14:46:16;26.50;99.90
21481;DHT22;10902;48.158;8.634;2022-10-22T14:48:42;26.70;99.90
21481;DHT22;10902;48.158;8.634;2022-10-22T14:51:18;26.00;99.90
21481;DHT22;10902;48.158;8.634;2022-10-22T14:53:45;26.40;99.90
21481;DHT22;10902;48.158;8.634;2022-10-22T14:56:12;27.10;99.90
21481;DHT22;10902;48.158;8.634;2022-10-22T14:58:39;27.30;99.90
21481;DHT22;10902;48.158;8.634;2022-10-22T15:01:05;27.30;99.90
21481;DHT22;10902;48.158;8.634;2022-10-22T15:03:31;27.20;99.90
21481;DHT22;10902;48.158;8.634;2022-10-22T15:05:57;27.10;99.90
21481;DHT22;10902;48.158;8.634;2022-10-22T15:08:23;27.00;99.90
21481;DHT22;10902;48.158;8.634;2022-10-22T15:10:59;27.00;99.90
21481;DHT22;10902;48.158;8.634;2022-10-22T15:13:26;27.20;99.90
21481;DHT22;10902;48.158;8.634;2022-10-22T15:15:58;26.90;99.90
21481;DHT22;10902;48.158;8.634;2022-10-22T15:18:24;26.80;99.90
21481;DHT22;10902;48.158;8.634;2022-10-22T15:20:57;26.80;99.90
21481;DHT22;10902;48.158;8.634;2022-10-22T15:23:23;26.20;99.90
21481;DHT22;10902;48.158;8.634;2022-10-22T15:25:48;24.20;99.90
21481;DHT22;10902;48.158;8.634;2022-10-22T15:28:14;23.90;99.90
21481;DHT22;10902;48.158;8.634;2022-10-22T15:30:39;23.80;99.90
21481;DHT22;10902;48.158;8.634;2022-10-22T15:33:05;22.90;99.90
21481;DHT22;10902;48.158;8.634;2022-10-22T15:35:31;22.20;99.90
21481;DHT22;10902;48.158;8.634;2022-10-22T15:37:56;21.60;99.90
21481;DHT22;10902;48.158;8.634;2022-10-22T15:40:22;21.80;99.90
21481;DHT22;10902;48.158;8.634;2022-10-22T15:42:47;22.20;99.90
21481;DHT22;10902;48.158;8.634;2022-10-22T15:45:13;22.00;99.90
21481;DHT22;10902;48.158;8.634;2022-10-22T15:47:44;21.90;99.90
21481;DHT22;10902;48.158;8.634;2022-10-22T15:50:10;21.40;99.90
21481;DHT22;10902;48.158;8.634;2022-10-22T15:52:35;21.20;99.90
21481;DHT22;10902;48.158;8.634;2022-10-22T15:55:01;20.70;99.90
21481;DHT22;10902;48.158;8.634;2022-10-22T15:57:31;20.50;99.90
21481;DHT22;10902;48.158;8.634;2022-10-22T15:59:57;19.40;99.90
21481;DHT22;10902;48.158;8.634;2022-10-22T16:02:22;18.60;99.90
21481;DHT22;10902;48.158;8.634;2022-10-22T16:04:48;18.50;99.90
21481;DHT22;10902;48.158;8.634;2022-10-22T16:07:13;18.10;99.90
21481;DHT22;10902;48.158;8.634;2022-10-22T16:09:39;17.70;99.90
21481;DHT22;10902;48.158;8.634;2022-10-22T16:12:05;17.30;99.90
21481;DHT22;10902;48.158;8.634;2022-10-22T16:14:30;16.90;99.90
21481;DHT22;10902;48.158;8.634;2022-10-22T16:16:56;16.60;99.90
21481;DHT22;10902;48.158;8.634;2022-10-22T16:19:24;16.10;99.90
21481;DHT22;10902;48.158;8.634;2022-10-22T16:21:53;15.50;99.90
21481;DHT22;10902;48.158;8.634;2022-10-22T16:24:19;15.10;99.90
21481;DHT22;10902;48.158;8.634;2022-10-22T16:26:45;14.80;99.90
21481;DHT22;10902;48.158;8.634;2022-10-22T16:29:12;14.60;99.90
21481;DHT22;10902;48.158;8.634;2022-10-22T16:31:38;14.40;99.90
21481;DHT22;10902;48.158;8.634;2022-10-22T16:34:04;14.30;99.90
21481;DHT22;10902;48.158;8.634;2022-10-22T16:36:30;14.20;99.90
21481;DHT22;10902;48.158;8.634;2022-10-22T16:38:56;14.00;99.90
21481;DHT22;10902;48.158;8.634;2022-10-22T16:41:23;14.00;99.90
21481;DHT22;10902;48.158;8.634;2022-10-22T16:43:51;13.90;99.90
21481;DHT22;10902;48.158;8.634;2022-10-22T16:46:21;14.00;99.90
21481;DHT22;10902;48.158;8.634;2022-10-22T16:48:49;14.30;99.90
21481;DHT22;10902;48.158;8.634;2022-10-22T16:51:17;14.10;99.90
21481;DHT22;10902;48.158;8.634;2022-10-22T16:53:42;13.80;99.90
21481;DHT22;10902;48.158;8.634;2022-10-22T16:56:09;13.50;99.90
21481;DHT22;10902;48.158;8.634;2022-10-22T16:58:36;13.30;99.90